sensor_id;sensor_type;location;lat;lon;timestamp;temperature;humidity
52471;DHT22;38382;53.160;7.026;2024-02-04T00:01:18;6.60;99.90
52471;DHT22;38382;53.160;7.026;2024-02-04T00:03:44;6.60;99.90
52471;DHT22;38382;53.160;7.026;2024-02-04T00:06:10;6.60;99.90
52471;DHT22;38382;53.160;7.026;2024-02-04T00:08:36;6.50;99.90
52471;DHT22;38382;53.160;7.026;2024-02-04T00:11:03;6.50;99.90
52471;DHT22;38382;53.160;7.026;2024-02-04T00:13:30;6.50;99.90
52471;DHT22;38382;53.160;7.026;2024-02-04T00:15:56;6.50;99.90
52471;DHT22;38382;53.160;7.026;2024-02-04T00:18:24;6.50;99.90
52471;DHT22;38382;53.160;7.026;2024-02-04T00:20:50;6.40;99.90
52471;DHT22;38382;53.160;7.026;2024-02-04T00:23:16;6.40;99.90
52471;DHT22;38382;53.160;7.026;2024-02-04T00:25:41;6.30;99.90
52471;DHT22;38382;53.160;7.026;2024-02-04T00:28:07;6.40;99.90
52471;DHT22;38382;53.160;7.026;2024-02-04T00:30:39;6.40;99.90
52471;DHT22;38382;53.160;7.026;2024-02-04T00:33:05;6.30;99.90
52471;DHT22;38382;53.160;7.026;2024-02-04T00:35:31;6.20;99.90
52471;DHT22;38382;53.160;7.026;2024-02-04T00:37:57;6.20;99.90
52471;DHT22;38382;53.160;7.026;2024-02-04T00:40:23;6.20;99.90
52471;DHT22;38382;53.160;7.026;2024-02-04T00:42:48;6.40;99.90
52471;DHT22;38382;53.160;7.026;2024-02-04T00:45:14;6.10;99.90
52471;DHT22;38382;53.160;7.026;2024-02-04T00:47:40;6.10;99.90
52471;DHT22;38382;53.160;7.026;2024-02-04T00:50:06;6.10;99.90
52471;DHT22;38382;53.160;7.026;2024-02-04T00:52:32;6.10;99.90
52471;DHT22;38382;53.160;7.026;2024-02-04T00:54:58;6.00;99.90
52471;DHT22;38382;53.160;7.026;2024-02-04T00:57:23;6.10;99.90
52471;DHT22;38382;53.160;7.026;2024-02-04T00:59:49;6.00;99.90
52471;DHT22;38382;53.160;7.026;2024-02-04T01:02:16;6.00;99.90
52471;DHT22;38382;53.160;7.026;2024-02-04T01:04:41;5.90;99.90
52471;DHT22;38382;53.160;7.026;2024-02-04T01:07:07;6.00;99.90
52471;DHT22;38382;53.160;7.026;2024-02-04T01:09:33;6.00;99.90
52471;DHT22;38382;53.160;7.026;2024-02-04T01:11:58;5.90;99.90
52471;DHT22;38382;53.160;7.026;2024-02-04T01:14:24;5.80;99.90
52471;DHT22;38382;53.160;7.026;2024-02-04T01:16:50;5.80;99.90
52471;DHT22;38382;53.160;7.026;2024-02-04T01:19:16;6.50;99.90
52471;DHT22;38382;53.160;7.026;2024-02-04T01:21:41;5.80;99.90
52471;DHT22;38382;53.160;7.026;2024-02-04T01:24:07;5.80;99.90
52471;DHT22;38382;53.160;7.026;2024-02-04T01:26:33;5.80;99.90
52471;DHT22;38382;53.160;7.026;2024-02-04T01:28:58;5.70;99.90
52471;DHT22;38382;53.160;7.026;2024-02-04T01:31:24;5.70;99.90
52471;DHT22;38382;53.160;7.026;2024-02-04T01:33:50;6.00;99.90
52471;DHT22;38382;53.160;7.026;2024-02-04T01:36:16;5.80;99.90
52471;DHT22;38382;53.160;7.026;2024-02-04T01:38:42;5.70;99.90
52471;DHT22;38382;53.160;7.026;2024-02-04T01:41:07;5.70;99.90
52471;DHT22;38382;53.160;7.026;2024-02-04T01:43:34;5.70;99.90
52471;DHT22;38382;53.160;7.026;2024-02-04T01:45:59;5.70;99.90
52471;DHT22;38382;53.160;7.026;2024-02-04T01:48:25;5.70;99.90
52471;DHT22;38382;53.160;7.026;2024-02-04T01:50:53;5.60;99.90
52471;DHT22;38382;53.160;7.026;2024-02-04T01:53:22;5.70;99.90
52471;DHT22;38382;53.160;7.026;2024-02-04T01:55:48;5.60;99.90
52471;DHT22;38382;53.160;7.026;2024-02-04T01:58:15;5.70;99.90
52471;DHT22;38382;53.160;7.026;2024-02-04T02:00:41;5.60;99.90
52471;DHT22;38382;53.160;7.026;2024-02-04T02:03:11;5.60;99.90
52471;DHT22;38382;53.160;7.026;2024-02-04T02:05:37;5.50;99.90
52471;DHT22;38382;53.160;7.026;2024-02-04T02:08:03;5.70;99.90
52471;DHT22;38382;53.160;7.026;2024-02-04T02:10:29;5.60;99.90
52471;DHT22;38382;53.160;7.026;2024-02-04T02:13:20;5.60;99.90
52471;DHT22;38382;53.160;7.026;2024-02-04T02:15:54;5.60;99.90
52471;DHT22;38382;53.160;7.026;2024-02-04T02:18:30;5.50;99.90
52471;DHT22;38382;53.160;7.026;2024-02-04T02:21:18;5.60;99.90
52471;DHT22;38382;53.160;7.026;2024-02-04T02:24:48;5.50;99.90
52471;DHT22;38382;53.160;7.026;2024-02-04T02:26:50;5.50;99.90
52471;DHT22;38382;53.160;7.026;2024-02-04T02:29:16;5.50;99.90
52471;DHT22;38382;53.160;7.026;2024-02-04T02:31:42;5.50;99.90
52471;DHT22;38382;53.160;7.026;2024-02-04T02:34:09;6.00;99.90
52471;DHT22;38382;53.160;7.026;2024-02-04T02:36:50;5.30;99.90
52471;DHT22;38382;53.160;7.026;2024-02-04T02:39:40;5.30;99.90
52471;DHT22;38382;53.160;7.026;2024-02-04T02:42:09;5.40;99.90
52471;DHT22;38382;53.160;7.026;2024-02-04T02:44:38;5.40;99.90
52471;DHT22;38382;53.160;7.026;2024-02-04T02:47:05;5.40;99.90
52471;DHT22;38382;53.160;7.026;2024-02-04T02:49:32;5.30;99.90
52471;DHT22;38382;53.160;7.026;2024-02-04T02:51:58;5.30;99.90
52471;DHT22;38382;53.160;7.026;2024-02-04T02:54:24;5.80;99.90
52471;DHT22;38382;53.160;7.026;2024-02-04T02:56:49;5.20;99.90
52471;DHT22;38382;53.160;7.026;2024-02-04T02:59:15;5.50;99.90
52471;DHT22;38382;53.160;7.026;2024-02-04T03:01:41;5.30;99.90
52471;DHT22;38382;53.160;7.026;2024-02-04T03:04:07;5.20;99.90
52471;DHT22;38382;53.160;7.026;2024-02-04T03:06:33;5.20;99.90
52471;DHT22;38382;53.160;7.026;2024-02-04T03:08:59;5.20;99.90
52471;DHT22;38382;53.160;7.026;2024-02-04T03:11:24;5.30;99.90
52471;DHT22;38382;53.160;7.026;2024-02-04T03:13:50;5.20;99.90
52471;DHT22;38382;53.160;7.026;2024-02-04T03:16:16;5.20;99.90
52471;DHT22;38382;53.160;7.026;2024-02-04T03:18:42;5.90;99.90
52471;DHT22;38382;53.160;7.026;2024-02-04T03:21:15;5.20;99.90
52471;DHT22;38382;53.160;7.026;2024-02-04T03:23:44;5.20;99.90
52471;DHT22;38382;53.160;7.026;2024-02-04T03:26:11;5.20;99.90
52471;DHT22;38382;53.160;7.026;2024-02-04T03:28:37;6.10;99.90
52471;DHT22;38382;53.160;7.026;2024-02-04T03:31:03;5.20;99.90
52471;DHT22;38382;53.160;7.026;2024-02-04T03:33:29;5.10;99.90
52471;DHT22;38382;53.160;7.026;2024-02-04T03:35:54;5.20;99.90
52471;DHT22;38382;53.160;7.026;2024-02-04T03:38:20;5.20;99.90
52471;DHT22;38382;53.160;7.026;2024-02-04T03:40:47;5.50;99.90
52471;DHT22;38382;53.160;7.026;2024-02-04T03:43:14;5.20;99.90
52471;DHT22;38382;53.160;7.026;2024-02-04T03:45:40;5.20;99.90
52471;DHT22;38382;53.160;7.026;2024-02-04T03:48:06;5.20;99.90
52471;DHT22;38382;53.160;7.026;2024-02-04T03:50:32;5.20;99.90
52471;DHT22;38382;53.160;7.026;2024-02-04T03:52:58;6.10;99.90
52471;DHT22;38382;53.160;7.026;2024-02-04T03:55:23;5.20;99.90
52471;DHT22;38382;53.160;7.026;2024-02-04T03:57:49;5.20;99.90
52471;DHT22;38382;53.160;7.026;2024-02-04T04:00:15;5.20;99.90
52471;DHT22;38382;53.160;7.026;2024-02-04T04:02:41;5.30;99.90
52471;DHT22;38382;53.160;7.026;2024-02-04T04:05:11;5.30;99.90
52471;DHT22;38382;53.160;7.026;2024-02-04T04:07:39;5.30;99.90
52471;DHT22;38382;53.160;7.026;2024-02-04T04:10:05;5.20;99.90
52471;DHT22;38382;53.160;7.026;2024-02-04T04:12:31;5.20;99.90
52471;DHT22;38382;53.160;7.026;2024-02-04T04:14:57;5.30;99.90
52471;DHT22;38382;53.160;7.026;2024-02-04T04:17:22;5.30;99.90
52471;DHT22;38382;53.160;7.026;2024-02-04T04:19:48;5.50;99.90
52471;DHT22;38382;53.160;7.026;2024-02-04T04:22:14;5.50;99.90
52471;DHT22;38382;53.160;7.026;2024-02-04T04:24:39;5.50;99.90
52471;DHT22;38382;53.160;7.026;2024-02-04T04:27:05;5.50;99.90
52471;DHT22;38382;53.160;7.026;2024-02-04T04:29:31;5.60;99.90
52471;DHT22;38382;53.160;7.026;2024-02-04T04:31:56;5.40;99.90
52471;DHT22;38382;53.160;7.026;2024-02-04T04:34:22;6.30;99.90
52471;DHT22;38382;53.160;7.026;2024-02-04T04:36:48;5.50;99.90
52471;DHT22;38382;53.160;7.026;2024-02-04T04:39:14;6.00;99.90
52471;DHT22;38382;53.160;7.026;2024-02-04T04:41:41;5.70;99.90
52471;DHT22;38382;53.160;7.026;2024-02-04T04:44:07;5.70;99.90
52471;DHT22;38382;53.160;7.026;2024-02-04T04:46:33;5.40;99.90
52471;DHT22;38382;53.160;7.026;2024-02-04T04:48:59;5.50;99.90
52471;DHT22;38382;53.160;7.026;2024-02-04T04:51:25;5.60;99.90
52471;DHT22;38382;53.160;7.026;2024-02-04T04:53:51;5.50;99.90
52471;DHT22;38382;53.160;7.026;2024-02-04T04:56:17;5.50;99.90
52471;DHT22;38382;53.160;7.026;2024-02-04T04:58:42;5.50;99.90
52471;DHT22;38382;53.160;7.026;2024-02-04T05:01:08;5.60;99.90
52471;DHT22;38382;53.160;7.026;2024-02-04T05:03:34;5.60;99.90
52471;DHT22;38382;53.160;7.026;2024-02-04T05:05:59;5.50;99.90
52471;DHT22;38382;53.160;7.026;2024-02-04T05:08:26;5.90;99.90
52471;DHT22;38382;53.160;7.026;2024-02-04T05:10:52;5.60;99.90
52471;DHT22;38382;53.160;7.026;2024-02-04T05:13:18;5.70;99.90
52471;DHT22;38382;53.160;7.026;2024-02-04T05:15:43;5.80;99.90
52471;DHT22;38382;53.160;7.026;2024-02-04T05:18:09;5.60;99.90
52471;DHT22;38382;53.160;7.026;2024-02-04T05:20:35;5.60;99.90
52471;DHT22;38382;53.160;7.026;2024-02-04T05:23:00;5.60;99.90
52471;DHT22;38382;53.160;7.026;2024-02-04T05:25:26;6.50;99.90
52471;DHT22;38382;53.160;7.026;2024-02-04T05:27:52;5.60;99.90
52471;DHT22;38382;53.160;7.026;2024-02-04T05:30:17;5.60;99.90
52471;DHT22;38382;53.160;7.026;2024-02-04T05:32:43;5.60;99.90
52471;DHT22;38382;53.160;7.026;2024-02-04T05:35:10;5.70;99.90
52471;DHT22;38382;53.160;7.026;2024-02-04T05:37:36;5.70;99.90
52471;DHT22;38382;53.160;7.026;2024-02-04T05:40:03;5.60;99.90
52471;DHT22;38382;53.160;7.026;2024-02-04T05:42:30;5.70;99.90
52471;DHT22;38382;53.160;7.026;2024-02-04T05:44:57;5.70;99.90
52471;DHT22;38382;53.160;7.026;2024-02-04T05:47:24;6.00;99.90
52471;DHT22;38382;53.160;7.026;2024-02-04T05:49:49;5.80;99.90
52471;DHT22;38382;53.160;7.026;2024-02-04T05:52:15;5.80;99.90
52471;DHT22;38382;53.160;7.026;2024-02-04T05:54:41;5.80;99.90
52471;DHT22;38382;53.160;7.026;2024-02-04T05:57:07;5.80;99.90
52471;DHT22;38382;53.160;7.026;2024-02-04T05:59:33;5.80;99.90
52471;DHT22;38382;53.160;7.026;2024-02-04T06:01:59;5.90;99.90
52471;DHT22;38382;53.160;7.026;2024-02-04T06:04:25;5.80;99.90
52471;DHT22;38382;53.160;7.026;2024-02-04T06:06:51;5.90;99.90
52471;DHT22;38382;53.160;7.026;2024-02-04T06:09:16;5.80;99.90
52471;DHT22;38382;53.160;7.026;2024-02-04T06:11:46;5.80;99.90
52471;DHT22;38382;53.160;7.026;2024-02-04T06:14:12;5.90;99.90
52471;DHT22;38382;53.160;7.026;2024-02-04T06:16:38;5.80;99.90
52471;DHT22;38382;53.160;7.026;2024-02-04T06:19:04;5.80;99.90
52471;DHT22;38382;53.160;7.026;2024-02-04T06:21:30;5.90;99.90
52471;DHT22;38382;53.160;7.026;2024-02-04T06:23:56;5.90;99.90
52471;DHT22;38382;53.160;7.026;2024-02-04T06:26:22;5.90;99.90
52471;DHT22;38382;53.160;7.026;2024-02-04T06:28:48;5.90;99.90
52471;DHT22;38382;53.160;7.026;2024-02-04T06:31:14;5.90;99.90
52471;DHT22;38382;53.160;7.026;2024-02-04T06:33:40;5.90;99.90
52471;DHT22;38382;53.160;7.026;2024-02-04T06:36:09;6.00;99.90
52471;DHT22;38382;53.160;7.026;2024-02-04T06:38:36;5.90;99.90
52471;DHT22;38382;53.160;7.026;2024-02-04T06:41:01;5.90;99.90
52471;DHT22;38382;53.160;7.026;2024-02-04T06:43:27;5.90;99.90
52471;DHT22;38382;53.160;7.026;2024-02-04T06:45:53;6.00;99.90
52471;DHT22;38382;53.160;7.026;2024-02-04T06:48:19;6.00;99.90
52471;DHT22;38382;53.160;7.026;2024-02-04T06:50:45;6.00;99.90
52471;DHT22;38382;53.160;7.026;2024-02-04T06:53:13;6.00;99.90
52471;DHT22;38382;53.160;7.026;2024-02-04T06:55:39;6.10;99.90
52471;DHT22;38382;53.160;7.026;2024-02-04T06:58:05;6.30;99.90
52471;DHT22;38382;53.160;7.026;2024-02-04T07:00:31;6.10;99.90
52471;DHT22;38382;53.160;7.026;2024-02-04T07:02:56;6.10;99.90
52471;DHT22;38382;53.160;7.026;2024-02-04T07:05:22;6.10;99.90
52471;DHT22;38382;53.160;7.026;2024-02-04T07:07:49;6.10;99.90
52471;DHT22;38382;53.160;7.026;2024-02-04T07:10:16;6.10;99.90
52471;DHT22;38382;53.160;7.026;2024-02-04T07:12:42;6.10;99.90
52471;DHT22;38382;53.160;7.026;2024-02-04T07:15:08;6.10;99.90
52471;DHT22;38382;53.160;7.026;2024-02-04T07:17:34;6.20;99.90
52471;DHT22;38382;53.160;7.026;2024-02-04T07:20:03;6.20;99.90
52471;DHT22;38382;53.160;7.026;2024-02-04T07:22:30;6.20;99.90
52471;DHT22;38382;53.160;7.026;2024-02-04T07:24:56;6.20;99.90
52471;DHT22;38382;53.160;7.026;2024-02-04T07:27:22;6.20;99.90
52471;DHT22;38382;53.160;7.026;2024-02-04T07:29:48;6.20;99.90
52471;DHT22;38382;53.160;7.026;2024-02-04T07:32:14;6.20;99.90
52471;DHT22;38382;53.160;7.026;2024-02-04T07:34:40;6.40;99.90
52471;DHT22;38382;53.160;7.026;2024-02-04T07:37:06;6.30;99.90
52471;DHT22;38382;53.160;7.026;2024-02-04T07:39:32;6.30;99.90
52471;DHT22;38382;53.160;7.026;2024-02-04T07:41:58;6.30;99.90
52471;DHT22;38382;53.160;7.026;2024-02-04T07:44:28;6.40;99.90
52471;DHT22;38382;53.160;7.026;2024-02-04T07:46:53;6.40;99.90
52471;DHT22;38382;53.160;7.026;2024-02-04T07:49:19;6.40;99.90
52471;DHT22;38382;53.160;7.026;2024-02-04T07:51:45;6.40;99.90
52471;DHT22;38382;53.160;7.026;2024-02-04T07:54:10;6.50;99.90
52471;DHT22;38382;53.160;7.026;2024-02-04T07:56:37;6.50;99.90
52471;DHT22;38382;53.160;7.026;2024-02-04T07:59:02;6.50;99.90
52471;DHT22;38382;53.160;7.026;2024-02-04T08:01:29;6.60;99.90
52471;DHT22;38382;53.160;7.026;2024-02-04T08:03:55;6.60;99.90
52471;DHT22;38382;53.160;7.026;2024-02-04T08:06:21;6.60;99.90
52471;DHT22;38382;53.160;7.026;2024-02-04T08:08:47;6.60;99.90
52471;DHT22;38382;53.160;7.026;2024-02-04T08:11:20;6.70;99.90
52471;DHT22;38382;53.160;7.026;2024-02-04T08:13:46;6.60;99.90
52471;DHT22;38382;53.160;7.026;2024-02-04T08:16:12;6.60;99.90
52471;DHT22;38382;53.160;7.026;2024-02-04T08:18:39;6.70;99.90
52471;DHT22;38382;53.160;7.026;2024-02-04T08:21:05;6.70;99.90
52471;DHT22;38382;53.160;7.026;2024-02-04T08:23:31;6.70;99.90
52471;DHT22;38382;53.160;7.026;2024-02-04T08:25:56;6.80;99.90
52471;DHT22;38382;53.160;7.026;2024-02-04T08:28:23;6.80;99.90
52471;DHT22;38382;53.160;7.026;2024-02-04T08:30:49;7.00;99.90
52471;DHT22;38382;53.160;7.026;2024-02-04T08:33:16;6.90;99.90
52471;DHT22;38382;53.160;7.026;2024-02-04T08:35:43;6.90;99.90
52471;DHT22;38382;53.160;7.026;2024-02-04T08:38:09;7.00;99.90
52471;DHT22;38382;53.160;7.026;2024-02-04T08:40:34;7.00;99.90
52471;DHT22;38382;53.160;7.026;2024-02-04T08:43:00;7.00;99.90
52471;DHT22;38382;53.160;7.026;2024-02-04T08:45:26;7.10;99.90
52471;DHT22;38382;53.160;7.026;2024-02-04T08:47:52;7.10;99.90
52471;DHT22;38382;53.160;7.026;2024-02-04T08:50:18;7.20;99.90
52471;DHT22;38382;53.160;7.026;2024-02-04T08:52:44;7.30;99.90
52471;DHT22;38382;53.160;7.026;2024-02-04T08:55:10;7.20;99.90
52471;DHT22;38382;53.160;7.026;2024-02-04T08:57:35;7.20;99.90
52471;DHT22;38382;53.160;7.026;2024-02-04T09:00:01;7.40;99.90
52471;DHT22;38382;53.160;7.026;2024-02-04T09:02:27;7.30;99.90
52471;DHT22;38382;53.160;7.026;2024-02-04T09:04:53;7.30;99.90
52471;DHT22;38382;53.160;7.026;2024-02-04T09:07:20;7.40;99.90
52471;DHT22;38382;53.160;7.026;2024-02-04T09:09:46;7.50;99.90
52471;DHT22;38382;53.160;7.026;2024-02-04T09:12:11;7.40;99.90
52471;DHT22;38382;53.160;7.026;2024-02-04T09:14:37;7.50;99.90
52471;DHT22;38382;53.160;7.026;2024-02-04T09:17:04;7.60;99.90
52471;DHT22;38382;53.160;7.026;2024-02-04T09:19:30;7.60;99.90
52471;DHT22;38382;53.160;7.026;2024-02-04T09:21:58;7.60;99.90
52471;DHT22;38382;53.160;7.026;2024-02-04T09:24:27;7.60;99.90
52471;DHT22;38382;53.160;7.026;2024-02-04T09:26:53;7.70;99.90
52471;DHT22;38382;53.160;7.026;2024-02-04T09:29:20;7.70;99.90
52471;DHT22;38382;53.160;7.026;2024-02-04T09:31:45;7.80;99.90
52471;DHT22;38382;53.160;7.026;2024-02-04T09:34:14;7.80;99.90
52471;DHT22;38382;53.160;7.026;2024-02-04T09:36:40;7.80;99.90
52471;DHT22;38382;53.160;7.026;2024-02-04T09:39:05;7.80;99.90
52471;DHT22;38382;53.160;7.026;2024-02-04T09:41:32;7.90;99.90
52471;DHT22;38382;53.160;7.026;2024-02-04T09:43:58;8.00;99.90
52471;DHT22;38382;53.160;7.026;2024-02-04T09:46:24;8.00;99.90
52471;DHT22;38382;53.160;7.026;2024-02-04T09:48:51;8.10;99.90
52471;DHT22;38382;53.160;7.026;2024-02-04T09:51:18;8.10;99.90
52471;DHT22;38382;53.160;7.026;2024-02-04T09:53:44;8.20;99.90
52471;DHT22;38382;53.160;7.026;2024-02-04T09:56:12;8.30;99.90
52471;DHT22;38382;53.160;7.026;2024-02-04T09:58:38;8.30;99.90
52471;DHT22;38382;53.160;7.026;2024-02-04T10:01:07;8.50;99.90
52471;DHT22;38382;53.160;7.026;2024-02-04T10:03:34;8.50;99.90
52471;DHT22;38382;53.160;7.026;2024-02-04T10:06:00;8.70;99.90
52471;DHT22;38382;53.160;7.026;2024-02-04T10:08:26;8.60;99.90
52471;DHT22;38382;53.160;7.026;2024-02-04T10:10:52;8.70;99.90
52471;DHT22;38382;53.160;7.026;2024-02-04T10:13:19;8.70;99.90
52471;DHT22;38382;53.160;7.026;2024-02-04T10:15:46;8.60;99.90
52471;DHT22;38382;53.160;7.026;2024-02-04T10:18:12;8.60;99.90
52471;DHT22;38382;53.160;7.026;2024-02-04T10:20:38;8.50;99.90
52471;DHT22;38382;53.160;7.026;2024-02-04T10:23:04;8.50;99.90
52471;DHT22;38382;53.160;7.026;2024-02-04T10:25:29;8.50;99.90
52471;DHT22;38382;53.160;7.026;2024-02-04T10:27:55;8.50;99.90
52471;DHT22;38382;53.160;7.026;2024-02-04T10:30:23;8.40;99.90
52471;DHT22;38382;53.160;7.026;2024-02-04T10:32:53;8.50;99.90
52471;DHT22;38382;53.160;7.026;2024-02-04T10:35:22;8.60;99.90
52471;DHT22;38382;53.160;7.026;2024-02-04T10:37:52;8.60;99.90
52471;DHT22;38382;53.160;7.026;2024-02-04T10:40:18;8.70;99.90
52471;DHT22;38382;53.160;7.026;2024-02-04T10:42:45;8.80;99.90
52471;DHT22;38382;53.160;7.026;2024-02-04T10:45:11;9.00;99.90
52471;DHT22;38382;53.160;7.026;2024-02-04T10:47:40;9.20;99.90
52471;DHT22;38382;53.160;7.026;2024-02-04T10:50:08;9.40;99.90
52471;DHT22;38382;53.160;7.026;2024-02-04T10:52:38;9.40;99.90
52471;DHT22;38382;53.160;7.026;2024-02-04T10:55:09;9.40;99.90
52471;DHT22;38382;53.160;7.026;2024-02-04T10:57:36;9.40;99.90
52471;DHT22;38382;53.160;7.026;2024-02-04T11:00:03;9.30;99.90
52471;DHT22;38382;53.160;7.026;2024-02-04T11:02:38;9.20;99.90
52471;DHT22;38382;53.160;7.026;2024-02-04T11:05:05;9.10;99.90
52471;DHT22;38382;53.160;7.026;2024-02-04T11:07:32;9.00;99.90
52471;DHT22;38382;53.160;7.026;2024-02-04T11:10:01;9.00;99.90
52471;DHT22;38382;53.160;7.026;2024-02-04T11:12:28;9.00;99.90
52471;DHT22;38382;53.160;7.026;2024-02-04T11:14:59;9.00;99.90
52471;DHT22;38382;53.160;7.026;2024-02-04T11:20:31;9.00;99.90
52471;DHT22;38382;53.160;7.026;2024-02-04T11:23:26;9.00;99.90
52471;DHT22;38382;53.160;7.026;2024-02-04T11:25:58;8.90;99.90
52471;DHT22;38382;53.160;7.026;2024-02-04T11:28:24;8.90;99.90
52471;DHT22;38382;53.160;7.026;2024-02-04T11:30:51;9.00;99.90
52471;DHT22;38382;53.160;7.026;2024-02-04T11:33:23;9.00;99.90
52471;DHT22;38382;53.160;7.026;2024-02-04T11:35:59;9.00;99.90
52471;DHT22;38382;53.160;7.026;2024-02-04T11:38:52;9.00;99.90
52471;DHT22;38382;53.160;7.026;2024-02-04T11:41:25;9.00;99.90
52471;DHT22;38382;53.160;7.026;2024-02-04T11:43:53;9.00;99.90
52471;DHT22;38382;53.160;7.026;2024-02-04T11:46:19;9.00;99.90
52471;DHT22;38382;53.160;7.026;2024-02-04T11:48:52;9.10;99.90
52471;DHT22;38382;53.160;7.026;2024-02-04T11:51:22;9.00;99.90
52471;DHT22;38382;53.160;7.026;2024-02-04T11:53:48;9.10;99.90
52471;DHT22;38382;53.160;7.026;2024-02-04T11:56:14;9.10;99.90
52471;DHT22;38382;53.160;7.026;2024-02-04T11:58:40;9.20;99.90
52471;DHT22;38382;53.160;7.026;2024-02-04T12:01:10;9.10;99.90
52471;DHT22;38382;53.160;7.026;2024-02-04T12:03:37;9.20;99.90
52471;DHT22;38382;53.160;7.026;2024-02-04T12:06:04;9.20;99.90
52471;DHT22;38382;53.160;7.026;2024-02-04T12:08:32;9.30;99.90
52471;DHT22;38382;53.160;7.026;2024-02-04T12:10:59;9.30;99.90
52471;DHT22;38382;53.160;7.026;2024-02-04T12:13:28;9.30;99.90
52471;DHT22;38382;53.160;7.026;2024-02-04T12:15:54;9.30;99.90
52471;DHT22;38382;53.160;7.026;2024-02-04T12:18:20;9.30;99.90
52471;DHT22;38382;53.160;7.026;2024-02-04T12:20:49;9.40;99.90
52471;DHT22;38382;53.160;7.026;2024-02-04T12:23:17;9.40;99.90
52471;DHT22;38382;53.160;7.026;2024-02-04T12:25:44;9.40;99.90
52471;DHT22;38382;53.160;7.026;2024-02-04T12:28:10;9.30;99.90
52471;DHT22;38382;53.160;7.026;2024-02-04T12:30:36;9.40;99.90
52471;DHT22;38382;53.160;7.026;2024-02-04T12:33:04;9.40;99.90
52471;DHT22;38382;53.160;7.026;2024-02-04T12:35:31;9.50;99.90
52471;DHT22;38382;53.160;7.026;2024-02-04T12:37:58;9.40;99.90
52471;DHT22;38382;53.160;7.026;2024-02-04T12:40:25;9.40;99.90
52471;DHT22;38382;53.160;7.026;2024-02-04T12:42:59;9.30;99.90
52471;DHT22;38382;53.160;7.026;2024-02-04T12:45:26;9.40;99.90
52471;DHT22;38382;53.160;7.026;2024-02-04T12:47:53;9.40;99.90
52471;DHT22;38382;53.160;7.026;2024-02-04T12:50:19;9.40;99.90
52471;DHT22;38382;53.160;7.026;2024-02-04T12:52:49;9.30;99.90
52471;DHT22;38382;53.160;7.026;2024-02-04T12:55:21;9.30;99.90
52471;DHT22;38382;53.160;7.026;2024-02-04T12:57:48;9.30;99.90
52471;DHT22;38382;53.160;7.026;2024-02-04T13:00:17;9.30;99.90
52471;DHT22;38382;53.160;7.026;2024-02-04T13:02:43;9.30;99.90
52471;DHT22;38382;53.160;7.026;2024-02-04T13:05:09;9.30;99.90
52471;DHT22;38382;53.160;7.026;2024-02-04T13:07:36;9.30;99.90
52471;DHT22;38382;53.160;7.026;2024-02-04T13:10:02;9.30;99.90
52471;DHT22;38382;53.160;7.026;2024-02-04T13:12:28;9.20;99.90
52471;DHT22;38382;53.160;7.026;2024-02-04T13:14:54;9.20;99.90
52471;DHT22;38382;53.160;7.026;2024-02-04T13:17:20;9.10;99.90
52471;DHT22;38382;53.160;7.026;2024-02-04T13:19:46;9.10;99.90
52471;DHT22;38382;53.160;7.026;2024-02-04T13:22:11;9.10;99.90
52471;DHT22;38382;53.160;7.026;2024-02-04T13:24:39;9.10;99.90
52471;DHT22;38382;53.160;7.026;2024-02-04T13:27:05;9.10;99.90
52471;DHT22;38382;53.160;7.026;2024-02-04T13:29:34;9.10;99.90
52471;DHT22;38382;53.160;7.026;2024-02-04T13:32:00;9.10;99.90
52471;DHT22;38382;53.160;7.026;2024-02-04T13:34:25;9.00;99.90
52471;DHT22;38382;53.160;7.026;2024-02-04T13:36:51;9.00;99.90
52471;DHT22;38382;53.160;7.026;2024-02-04T13:39:17;9.00;99.90
52471;DHT22;38382;53.160;7.026;2024-02-04T13:41:44;9.00;99.90
52471;DHT22;38382;53.160;7.026;2024-02-04T13:44:10;8.90;99.90
52471;DHT22;38382;53.160;7.026;2024-02-04T13:46:36;8.90;99.90
52471;DHT22;38382;53.160;7.026;2024-02-04T13:49:04;8.90;99.90
52471;DHT22;38382;53.160;7.026;2024-02-04T13:51:31;8.90;99.90
52471;DHT22;38382;53.160;7.026;2024-02-04T13:53:57;8.90;99.90
52471;DHT22;38382;53.160;7.026;2024-02-04T13:56:22;8.80;99.90
52471;DHT22;38382;53.160;7.026;2024-02-04T13:58:48;8.80;99.90
52471;DHT22;38382;53.160;7.026;2024-02-04T14:01:14;8.80;99.90
52471;DHT22;38382;53.160;7.026;2024-02-04T14:03:41;8.80;99.90
52471;DHT22;38382;53.160;7.026;2024-02-04T14:06:06;8.80;99.90
52471;DHT22;38382;53.160;7.026;2024-02-04T14:08:32;8.80;99.90
52471;DHT22;38382;53.160;7.026;2024-02-04T14:10:58;8.70;99.90
52471;DHT22;38382;53.160;7.026;2024-02-04T14:13:24;8.70;99.90
52471;DHT22;38382;53.160;7.026;2024-02-04T14:15:50;8.70;99.90
52471;DHT22;38382;53.160;7.026;2024-02-04T14:18:15;8.60;99.90
52471;DHT22;38382;53.160;7.026;2024-02-04T14:20:41;8.60;99.90
52471;DHT22;38382;53.160;7.026;2024-02-04T14:23:07;8.60;99.90
52471;DHT22;38382;53.160;7.026;2024-02-04T14:25:34;8.60;99.90
52471;DHT22;38382;53.160;7.026;2024-02-04T14:28:05;8.60;99.90
52471;DHT22;38382;53.160;7.026;2024-02-04T14:30:31;8.50;99.90
52471;DHT22;38382;53.160;7.026;2024-02-04T14:32:57;8.50;99.90
52471;DHT22;38382;53.160;7.026;2024-02-04T14:35:23;8.50;99.90
52471;DHT22;38382;53.160;7.026;2024-02-04T14:37:49;8.50;99.90
52471;DHT22;38382;53.160;7.026;2024-02-04T14:40:14;8.40;99.90
52471;DHT22;38382;53.160;7.026;2024-02-04T14:42:40;8.40;99.90
52471;DHT22;38382;53.160;7.026;2024-02-04T14:45:06;8.40;99.90
52471;DHT22;38382;53.160;7.026;2024-02-04T14:47:32;8.40;99.90
52471;DHT22;38382;53.160;7.026;2024-02-04T14:49:58;8.40;99.90
52471;DHT22;38382;53.160;7.026;2024-02-04T14:52:24;8.40;99.90
52471;DHT22;38382;53.160;7.026;2024-02-04T14:54:50;8.40;99.90
52471;DHT22;38382;53.160;7.026;2024-02-04T14:57:15;8.30;99.90
52471;DHT22;38382;53.160;7.026;2024-02-04T14:59:42;8.30;99.90
52471;DHT22;38382;53.160;7.026;2024-02-04T15:02:08;8.30;99.90
52471;DHT22;38382;53.160;7.026;2024-02-04T15:04:34;8.30;99.90
52471;DHT22;38382;53.160;7.026;2024-02-04T15:07:01;8.30;99.90
52471;DHT22;38382;53.160;7.026;2024-02-04T15:09:33;8.30;99.90
52471;DHT22;38382;53.160;7.026;2024-02-04T15:12:00;8.20;99.90
52471;DHT22;38382;53.160;7.026;2024-02-04T15:14:27;8.20;99.90
52471;DHT22;38382;53.160;7.026;2024-02-04T15:16:53;8.20;99.90
52471;DHT22;38382;53.160;7.026;2024-02-04T15:19:22;8.20;99.90
52471;DHT22;38382;53.160;7.026;2024-02-04T15:21:49;8.20;99.90
52471;DHT22;38382;53.160;7.026;2024-02-04T15:24:15;8.20;99.90
52471;DHT22;38382;53.160;7.026;2024-02-04T15:26:41;8.20;99.90
52471;DHT22;38382;53.160;7.026;2024-02-04T15:29:13;8.20;99.90
52471;DHT22;38382;53.160;7.026;2024-02-04T15:31:41;8.20;99.90
52471;DHT22;38382;53.160;7.026;2024-02-04T15:34:07;8.20;99.90
52471;DHT22;38382;53.160;7.026;2024-02-04T15:36:33;8.30;99.90
52471;DHT22;38382;53.160;7.026;2024-02-04T15:38:59;8.30;99.90
52471;DHT22;38382;53.160;7.026;2024-02-04T15:41:24;8.30;99.90
52471;DHT22;38382;53.160;7.026;2024-02-04T15:43:50;8.30;99.90
52471;DHT22;38382;53.160;7.026;2024-02-04T15:46:17;8.30;99.90